sensor_id;sensor_type;location;lat;lon;timestamp;pressure;altitude;pressure_sealevel;temperature;humidity
61506;BME280;47366;51.916;4.574;2023-05-16T00:02:18;102134.84;;;9.67;73.21
61506;BME280;47366;51.916;4.574;2023-05-16T00:04:44;102131.28;;;9.67;73.22
61506;BME280;47366;51.916;4.574;2023-05-16T00:07:10;102135.78;;;9.68;73.33
61506;BME280;47366;51.916;4.574;2023-05-16T00:09:36;102136.81;;;9.64;73.04
61506;BME280;47366;51.916;4.574;2023-05-16T00:12:01;102138.63;;;9.63;73.40
61506;BME280;47366;51.916;4.574;2023-05-16T00:14:26;102144.22;;;9.59;73.31
61506;BME280;47366;51.916;4.574;2023-05-16T00:16:52;102138.81;;;9.59;72.94
61506;BME280;47366;51.916;4.574;2023-05-16T00:19:18;102141.59;;;9.55;73.35
61506;BME280;47366;51.916;4.574;2023-05-16T00:21:44;102139.91;;;9.53;73.40
61506;BME280;47366;51.916;4.574;2023-05-16T00:24:10;102137.19;;;9.53;73.51
61506;BME280;47366;51.916;4.574;2023-05-16T00:26:35;102140.97;;;9.49;73.65
61506;BME280;47366;51.916;4.574;2023-05-16T00:29:01;102144.56;;;9.49;73.53
61506;BME280;47366;51.916;4.574;2023-05-16T00:31:26;102144.47;;;9.51;73.46
61506;BME280;47366;51.916;4.574;2023-05-16T00:33:52;102144.66;;;9.46;73.67
61506;BME280;47366;51.916;4.574;2023-05-16T00:36:19;102144.59;;;9.48;73.78
61506;BME280;47366;51.916;4.574;2023-05-16T00:38:44;102133.91;;;9.45;73.31
61506;BME280;47366;51.916;4.574;2023-05-16T00:41:10;102137.53;;;9.44;73.52
61506;BME280;47366;51.916;4.574;2023-05-16T00:43:35;102145.72;;;9.42;73.47
61506;BME280;47366;51.916;4.574;2023-05-16T00:46:01;102142.13;;;9.42;73.50
61506;BME280;47366;51.916;4.574;2023-05-16T00:48:26;102149.44;;;9.38;73.78
61506;BME280;47366;51.916;4.574;2023-05-16T00:50:52;102151.22;;;9.39;73.61
61506;BME280;47366;51.916;4.574;2023-05-16T00:53:18;102148.56;;;9.38;73.48
61506;BME280;47366;51.916;4.574;2023-05-16T00:55:44;102139.66;;;9.34;73.71
61506;BME280;47366;51.916;4.574;2023-05-16T00:58:10;102152.28;;;9.35;73.87
61506;BME280;47366;51.916;4.574;2023-05-16T01:00:36;102145.06;;;9.34;73.61
61506;BME280;47366;51.916;4.574;2023-05-16T01:03:04;102142.44;;;9.32;73.67
61506;BME280;47366;51.916;4.574;2023-05-16T01:05:29;102147.03;;;9.30;73.85
61506;BME280;47366;51.916;4.574;2023-05-16T01:07:55;102146.16;;;9.30;73.87
61506;BME280;47366;51.916;4.574;2023-05-16T01:10:21;102145.34;;;9.26;73.97
61506;BME280;47366;51.916;4.574;2023-05-16T01:15:36;102156.25;;;9.25;74.18
61506;BME280;47366;51.916;4.574;2023-05-16T01:18:18;102146.47;;;9.21;74.31
61506;BME280;47366;51.916;4.574;2023-05-16T01:20:54;102159.09;;;9.20;74.37
61506;BME280;47366;51.916;4.574;2023-05-16T01:26:10;102147.66;;;9.12;74.84
61506;BME280;47366;51.916;4.574;2023-05-16T01:28:36;102141.38;;;9.11;74.67
61506;BME280;47366;51.916;4.574;2023-05-16T01:31:03;102151.31;;;9.11;74.65
61506;BME280;47366;51.916;4.574;2023-05-16T01:33:28;102146.09;;;9.05;74.82
61506;BME280;47366;51.916;4.574;2023-05-16T01:42:09;102154.44;;;8.99;75.29
61506;BME280;47366;51.916;4.574;2023-05-16T01:44:42;102155.50;;;8.93;75.58
61506;BME280;47366;51.916;4.574;2023-05-16T01:47:14;102150.97;;;8.93;75.58
61506;BME280;47366;51.916;4.574;2023-05-16T01:52:34;102150.09;;;8.93;75.66
61506;BME280;47366;51.916;4.574;2023-05-16T01:55:03;102149.28;;;8.91;75.62
61506;BME280;47366;51.916;4.574;2023-05-16T01:57:29;102152.97;;;8.88;75.61
61506;BME280;47366;51.916;4.574;2023-05-16T01:59:56;102158.31;;;8.90;75.72
61506;BME280;47366;51.916;4.574;2023-05-16T02:02:23;102151.13;;;8.89;75.56
61506;BME280;47366;51.916;4.574;2023-05-16T02:04:49;102156.72;;;8.84;75.91
61506;BME280;47366;51.916;4.574;2023-05-16T02:07:15;102150.53;;;8.81;75.69
61506;BME280;47366;51.916;4.574;2023-05-16T02:09:40;102159.47;;;8.83;75.79
61506;BME280;47366;51.916;4.574;2023-05-16T02:12:06;102155.88;;;8.82;75.83
61506;BME280;47366;51.916;4.574;2023-05-16T02:14:31;102154.06;;;8.83;75.95
61506;BME280;47366;51.916;4.574;2023-05-16T02:16:57;102153.25;;;8.79;75.80
61506;BME280;47366;51.916;4.574;2023-05-16T02:19:22;102156.94;;;8.77;75.93
61506;BME280;47366;51.916;4.574;2023-05-16T02:21:48;102164.06;;;8.79;75.96
61506;BME280;47366;51.916;4.574;2023-05-16T02:24:14;102155.16;;;8.77;75.85
61506;BME280;47366;51.916;4.574;2023-05-16T02:26:39;102163.19;;;8.79;75.94
61506;BME280;47366;51.916;4.574;2023-05-16T02:29:05;102172.13;;;8.81;75.79
61506;BME280;47366;51.916;4.574;2023-05-16T02:31:31;102166.72;;;8.81;75.85
61506;BME280;47366;51.916;4.574;2023-05-16T02:33:58;102172.28;;;8.76;75.84
61506;BME280;47366;51.916;4.574;2023-05-16T02:36:24;102176.78;;;8.77;75.94
61506;BME280;47366;51.916;4.574;2023-05-16T02:38:49;102175.81;;;8.78;76.16
61506;BME280;47366;51.916;4.574;2023-05-16T02:41:15;102175.81;;;8.78;75.94
61506;BME280;47366;51.916;4.574;2023-05-16T02:43:40;102178.63;;;8.75;76.07
61506;BME280;47366;51.916;4.574;2023-05-16T02:46:26;102184.88;;;8.77;76.23
61506;BME280;47366;51.916;4.574;2023-05-16T02:48:52;102184.03;;;8.75;76.17
61506;BME280;47366;51.916;4.574;2023-05-16T02:51:20;102187.66;;;8.74;76.07
61506;BME280;47366;51.916;4.574;2023-05-16T02:53:47;102192.13;;;8.75;76.22
61506;BME280;47366;51.916;4.574;2023-05-16T02:56:12;102181.41;;;8.72;76.19
61506;BME280;47366;51.916;4.574;2023-05-16T02:58:37;102193.16;;;8.71;76.52
61506;BME280;47366;51.916;4.574;2023-05-16T03:01:03;102195.03;;;8.69;76.79
61506;BME280;47366;51.916;4.574;2023-05-16T03:03:28;102186.09;;;8.67;76.49
61506;BME280;47366;51.916;4.574;2023-05-16T03:05:54;102183.38;;;8.67;76.76
61506;BME280;47366;51.916;4.574;2023-05-16T03:08:19;102190.56;;;8.68;76.50
61506;BME280;47366;51.916;4.574;2023-05-16T03:10:45;102190.56;;;8.68;76.74
61506;BME280;47366;51.916;4.574;2023-05-16T03:13:10;102195.84;;;8.73;76.68
61506;BME280;47366;51.916;4.574;2023-05-16T03:15:36;102199.44;;;8.71;76.58
61506;BME280;47366;51.916;4.574;2023-05-16T03:18:02;102194.88;;;8.74;76.67
61506;BME280;47366;51.916;4.574;2023-05-16T03:20:28;102204.69;;;8.76;76.63
61506;BME280;47366;51.916;4.574;2023-05-16T03:22:53;102205.56;;;8.77;76.65
61506;BME280;47366;51.916;4.574;2023-05-16T03:25:18;102210.09;;;8.76;76.61
61506;BME280;47366;51.916;4.574;2023-05-16T03:27:44;102203.88;;;8.74;76.20
61506;BME280;47366;51.916;4.574;2023-05-16T03:30:10;102204.75;;;8.75;76.45
61506;BME280;47366;51.916;4.574;2023-05-16T03:32:37;102209.34;;;8.73;76.51
61506;BME280;47366;51.916;4.574;2023-05-16T03:35:03;102206.72;;;8.69;76.49
61506;BME280;47366;51.916;4.574;2023-05-16T03:37:28;102202.28;;;8.67;76.59
61506;BME280;47366;51.916;4.574;2023-05-16T03:39:54;102208.69;;;8.64;76.58
61506;BME280;47366;51.916;4.574;2023-05-16T03:42:19;102207.81;;;8.64;76.70
61506;BME280;47366;51.916;4.574;2023-05-16T03:44:44;102215.03;;;8.63;76.58
61506;BME280;47366;51.916;4.574;2023-05-16T03:47:10;102205.13;;;8.62;76.60
61506;BME280;47366;51.916;4.574;2023-05-16T03:49:35;102201.56;;;8.62;76.72
61506;BME280;47366;51.916;4.574;2023-05-16T03:52:03;102206.94;;;8.63;76.57
61506;BME280;47366;51.916;4.574;2023-05-16T03:54:28;102203.34;;;8.63;76.60
61506;BME280;47366;51.916;4.574;2023-05-16T03:56:53;102207.97;;;8.58;76.72
61506;BME280;47366;51.916;4.574;2023-05-16T03:59:19;102217.88;;;8.59;76.91
61506;BME280;47366;51.916;4.574;2023-05-16T04:01:44;102209.88;;;8.56;76.95
61506;BME280;47366;51.916;4.574;2023-05-16T04:04:09;102220.59;;;8.57;76.78
61506;BME280;47366;51.916;4.574;2023-05-16T04:06:35;102216.19;;;8.55;77.25
61506;BME280;47366;51.916;4.574;2023-05-16T04:09:00;102220.56;;;8.59;77.17
61506;BME280;47366;51.916;4.574;2023-05-16T04:11:25;102219.72;;;8.57;77.24
61506;BME280;47366;51.916;4.574;2023-05-16T04:13:51;102223.31;;;8.57;76.97
61506;BME280;47366;51.916;4.574;2023-05-16T04:16:18;102225.09;;;8.58;77.09
61506;BME280;47366;51.916;4.574;2023-05-16T04:18:43;102221.56;;;8.56;77.10
61506;BME280;47366;51.916;4.574;2023-05-16T04:21:08;102231.31;;;8.60;76.85
61506;BME280;47366;51.916;4.574;2023-05-16T04:23:35;102228.56;;;8.62;76.93
61506;BME280;47366;51.916;4.574;2023-05-16T04:26:01;102224.09;;;8.61;77.12
61506;BME280;47366;51.916;4.574;2023-05-16T04:28:28;102226.84;;;8.59;77.08
61506;BME280;47366;51.916;4.574;2023-05-16T04:30:54;102230.34;;;8.63;76.96
61506;BME280;47366;51.916;4.574;2023-05-16T04:33:19;102234.91;;;8.61;76.81
61506;BME280;47366;51.916;4.574;2023-05-16T04:35:45;102237.50;;;8.64;76.88
61506;BME280;47366;51.916;4.574;2023-05-16T04:38:10;102239.22;;;8.66;76.61
61506;BME280;47366;51.916;4.574;2023-05-16T04:40:36;102236.50;;;8.68;76.71
61506;BME280;47366;51.916;4.574;2023-05-16T04:43:01;102231.16;;;8.65;76.42
61506;BME280;47366;51.916;4.574;2023-05-16T04:45:27;102231.97;;;8.68;76.37
61506;BME280;47366;51.916;4.574;2023-05-16T04:47:52;102236.38;;;8.71;76.63
61506;BME280;47366;51.916;4.574;2023-05-16T04:50:17;102243.47;;;8.75;76.65
61506;BME280;47366;51.916;4.574;2023-05-16T04:52:43;102238.13;;;8.72;76.32
61506;BME280;47366;51.916;4.574;2023-05-16T04:55:09;102243.41;;;8.77;76.49
61506;BME280;47366;51.916;4.574;2023-05-16T04:57:34;102249.66;;;8.79;76.42
61506;BME280;47366;51.916;4.574;2023-05-16T05:00:00;102241.50;;;8.80;76.65
61506;BME280;47366;51.916;4.574;2023-05-16T05:02:25;102252.19;;;8.83;76.35
61506;BME280;47366;51.916;4.574;2023-05-16T05:04:51;102256.72;;;8.83;76.40
61506;BME280;47366;51.916;4.574;2023-05-16T05:07:16;102252.19;;;8.83;76.42
61506;BME280;47366;51.916;4.574;2023-05-16T05:09:42;102259.28;;;8.87;76.47
61506;BME280;47366;51.916;4.574;2023-05-16T05:12:08;102261.03;;;8.88;76.43
61506;BME280;47366;51.916;4.574;2023-05-16T05:14:33;102263.66;;;8.91;76.10
61506;BME280;47366;51.916;4.574;2023-05-16T05:16:59;102259.97;;;8.94;76.07
61506;BME280;47366;51.916;4.574;2023-05-16T05:19:24;102260.91;;;8.93;75.68
61506;BME280;47366;51.916;4.574;2023-05-16T05:21:50;102262.47;;;9.00;75.88
61506;BME280;47366;51.916;4.574;2023-05-16T05:24:15;102268.53;;;9.08;75.73
61506;BME280;47366;51.916;4.574;2023-05-16T05:26:40;102271.00;;;9.14;75.39
61506;BME280;47366;51.916;4.574;2023-05-16T05:29:06;102270.75;;;9.22;75.21
61506;BME280;47366;51.916;4.574;2023-05-16T05:31:32;102273.22;;;9.30;75.02
61506;BME280;47366;51.916;4.574;2023-05-16T05:34:00;102272.09;;;9.37;74.86
61506;BME280;47366;51.916;4.574;2023-05-16T05:36:25;102271.03;;;9.41;74.76
61506;BME280;47366;51.916;4.574;2023-05-16T05:38:50;102274.25;;;9.52;74.66
61506;BME280;47366;51.916;4.574;2023-05-16T05:41:16;102267.81;;;9.56;74.46
61506;BME280;47366;51.916;4.574;2023-05-16T05:43:41;102282.81;;;9.65;74.20
61506;BME280;47366;51.916;4.574;2023-05-16T05:46:07;102277.22;;;9.71;73.74
61506;BME280;47366;51.916;4.574;2023-05-16T05:48:33;102274.31;;;9.77;73.69
61506;BME280;47366;51.916;4.574;2023-05-16T05:50:58;102272.31;;;9.83;73.48
61506;BME280;47366;51.916;4.574;2023-05-16T05:53:24;102281.09;;;9.89;73.30
61506;BME280;47366;51.916;4.574;2023-05-16T05:55:49;102279.88;;;9.98;72.99
61506;BME280;47366;51.916;4.574;2023-05-16T05:58:15;102275.91;;;10.08;72.96
61506;BME280;47366;51.916;4.574;2023-05-16T06:00:42;102273.84;;;10.15;72.61
61506;BME280;47366;51.916;4.574;2023-05-16T06:03:07;102283.47;;;10.24;72.24
61506;BME280;47366;51.916;4.574;2023-05-16T06:05:33;102280.56;;;10.30;71.87
61506;BME280;47366;51.916;4.574;2023-05-16T06:07:58;102279.72;;;10.28;71.51
61506;BME280;47366;51.916;4.574;2023-05-16T06:10:23;102272.97;;;10.14;71.69
61506;BME280;47366;51.916;4.574;2023-05-16T06:12:49;102292.97;;;10.10;71.99
61506;BME280;47366;51.916;4.574;2023-05-16T06:15:14;102279.59;;;10.06;72.26
61506;BME280;47366;51.916;4.574;2023-05-16T06:17:40;102291.41;;;10.03;72.38
61506;BME280;47366;51.916;4.574;2023-05-16T06:20:06;102293.41;;;9.98;72.35
61506;BME280;47366;51.916;4.574;2023-05-16T06:22:32;102293.53;;;9.95;72.85
61506;BME280;47366;51.916;4.574;2023-05-16T06:24:57;102297.22;;;9.92;72.82
61506;BME280;47366;51.916;4.574;2023-05-16T06:27:22;102292.81;;;9.90;72.91
61506;BME280;47366;51.916;4.574;2023-05-16T06:29:48;102304.69;;;10.11;72.72
61506;BME280;47366;51.916;4.574;2023-05-16T06:32:13;102289.56;;;10.30;72.12
61506;BME280;47366;51.916;4.574;2023-05-16T06:34:39;102303.00;;;10.57;71.68
61506;BME280;47366;51.916;4.574;2023-05-16T06:37:04;102296.94;;;10.74;71.06
61506;BME280;47366;51.916;4.574;2023-05-16T06:39:29;102300.56;;;10.96;70.01
61506;BME280;47366;51.916;4.574;2023-05-16T06:41:55;102304.25;;;11.17;70.35
61506;BME280;47366;51.916;4.574;2023-05-16T06:44:22;102300.84;;;11.34;69.57
61506;BME280;47366;51.916;4.574;2023-05-16T06:46:47;102298.00;;;11.37;69.06
61506;BME280;47366;51.916;4.574;2023-05-16T06:49:13;102297.19;;;11.35;68.06
61506;BME280;47366;51.916;4.574;2023-05-16T06:51:38;102304.81;;;11.47;68.42
61506;BME280;47366;51.916;4.574;2023-05-16T06:54:04;102308.91;;;11.58;65.63
61506;BME280;47366;51.916;4.574;2023-05-16T06:56:30;102310.16;;;11.71;66.86
61506;BME280;47366;51.916;4.574;2023-05-16T06:58:55;102316.72;;;11.87;65.64
61506;BME280;47366;51.916;4.574;2023-05-16T07:01:21;102312.69;;;11.96;65.44
61506;BME280;47366;51.916;4.574;2023-05-16T07:03:46;102309.81;;;11.79;66.43
61506;BME280;47366;51.916;4.574;2023-05-16T07:06:11;102320.34;;;11.86;66.06
61506;BME280;47366;51.916;4.574;2023-05-16T07:08:37;102327.03;;;12.00;66.81
61506;BME280;47366;51.916;4.574;2023-05-16T07:11:02;102318.59;;;11.85;66.49
61506;BME280;47366;51.916;4.574;2023-05-16T07:13:28;102325.41;;;11.74;65.17
61506;BME280;47366;51.916;4.574;2023-05-16T07:15:53;102318.69;;;11.62;65.27
61506;BME280;47366;51.916;4.574;2023-05-16T07:18:18;102320.75;;;11.55;65.31
61506;BME280;47366;51.916;4.574;2023-05-16T07:20:44;102326.28;;;11.54;66.12
61506;BME280;47366;51.916;4.574;2023-05-16T07:23:10;102323.53;;;11.76;64.90
61506;BME280;47366;51.916;4.574;2023-05-16T07:25:36;102328.00;;;11.77;65.13
61506;BME280;47366;51.916;4.574;2023-05-16T07:28:02;102318.44;;;11.68;65.84
61506;BME280;47366;51.916;4.574;2023-05-16T07:30:27;102332.13;;;11.65;65.73
61506;BME280;47366;51.916;4.574;2023-05-16T07:32:52;102326.88;;;11.60;66.43
61506;BME280;47366;51.916;4.574;2023-05-16T07:35:18;102332.13;;;11.65;66.20
61506;BME280;47366;51.916;4.574;2023-05-16T07:37:43;102345.44;;;11.71;65.66
61506;BME280;47366;51.916;4.574;2023-05-16T07:40:09;102333.88;;;11.88;64.86
61506;BME280;47366;51.916;4.574;2023-05-16T07:42:35;102338.75;;;11.80;64.01
61506;BME280;47366;51.916;4.574;2023-05-16T07:45:00;102340.97;;;11.92;65.08
61506;BME280;47366;51.916;4.574;2023-05-16T07:47:26;102331.19;;;12.08;64.23
61506;BME280;47366;51.916;4.574;2023-05-16T07:49:52;102328.47;;;12.29;64.98
61506;BME280;47366;51.916;4.574;2023-05-16T07:52:17;102333.31;;;12.62;64.54
61506;BME280;47366;51.916;4.574;2023-05-16T07:54:45;102334.06;;;12.84;63.71
61506;BME280;47366;51.916;4.574;2023-05-16T07:57:12;102331.72;;;13.14;62.47
61506;BME280;47366;51.916;4.574;2023-05-16T07:59:39;102334.28;;;13.17;61.41
61506;BME280;47366;51.916;4.574;2023-05-16T08:02:04;102329.66;;;13.20;61.24
61506;BME280;47366;51.916;4.574;2023-05-16T08:04:29;102327.28;;;13.32;60.00
61506;BME280;47366;51.916;4.574;2023-05-16T08:06:55;102327.81;;;13.39;60.01
61506;BME280;47366;51.916;4.574;2023-05-16T08:09:20;102334.44;;;13.14;60.37
61506;BME280;47366;51.916;4.574;2023-05-16T08:11:45;102339.22;;;12.90;61.24
61506;BME280;47366;51.916;4.574;2023-05-16T08:14:11;102331.00;;;13.11;61.40
61506;BME280;47366;51.916;4.574;2023-05-16T08:16:36;102347.47;;;13.46;60.61
61506;BME280;47366;51.916;4.574;2023-05-16T08:19:01;102340.97;;;13.48;59.08
61506;BME280;47366;51.916;4.574;2023-05-16T08:21:27;102339.25;;;13.28;59.91
61506;BME280;47366;51.916;4.574;2023-05-16T08:23:52;102342.69;;;13.32;58.61
61506;BME280;47366;51.916;4.574;2023-05-16T08:26:18;102340.50;;;13.40;57.53
61506;BME280;47366;51.916;4.574;2023-05-16T08:28:43;102358.88;;;13.35;59.23
61506;BME280;47366;51.916;4.574;2023-05-16T08:31:09;102343.78;;;13.09;60.01
61506;BME280;47366;51.916;4.574;2023-05-16T08:33:35;102346.41;;;13.10;58.84
61506;BME280;47366;51.916;4.574;2023-05-16T08:36:00;102349.72;;;13.55;59.82
61506;BME280;47366;51.916;4.574;2023-05-16T08:38:25;102350.03;;;13.85;58.44
61506;BME280;47366;51.916;4.574;2023-05-16T08:40:51;102353.31;;;14.09;58.93
61506;BME280;47366;51.916;4.574;2023-05-16T08:43:16;102348.56;;;14.13;55.98
61506;BME280;47366;51.916;4.574;2023-05-16T08:45:42;102351.78;;;14.21;57.97
61506;BME280;47366;51.916;4.574;2023-05-16T08:48:09;102353.31;;;14.27;57.91
61506;BME280;47366;51.916;4.574;2023-05-16T08:50:35;102347.28;;;14.55;55.71
61506;BME280;47366;51.916;4.574;2023-05-16T08:53:06;102335.72;;;14.50;56.62
61506;BME280;47366;51.916;4.574;2023-05-16T08:55:34;102360.75;;;14.40;56.28
61506;BME280;47366;51.916;4.574;2023-05-16T08:58:00;102352.97;;;14.15;57.58
61506;BME280;47366;51.916;4.574;2023-05-16T09:00:26;102357.00;;;13.91;57.91
61506;BME280;47366;51.916;4.574;2023-05-16T09:02:52;102350.44;;;13.58;58.09
61506;BME280;47366;51.916;4.574;2023-05-16T09:05:17;102351.19;;;13.62;56.56
61506;BME280;47366;51.916;4.574;2023-05-16T09:07:44;102350.22;;;13.63;58.73
61506;BME280;47366;51.916;4.574;2023-05-16T09:10:10;102348.09;;;14.05;58.07
61506;BME280;47366;51.916;4.574;2023-05-16T09:12:38;102354.25;;;14.08;58.01
61506;BME280;47366;51.916;4.574;2023-05-16T09:15:05;102352.88;;;13.82;58.02
61506;BME280;47366;51.916;4.574;2023-05-16T09:17:37;102363.91;;;13.62;56.62
61506;BME280;47366;51.916;4.574;2023-05-16T09:20:17;102358.34;;;13.82;56.16
61506;BME280;47366;51.916;4.574;2023-05-16T09:22:51;102363.06;;;13.96;57.14
61506;BME280;47366;51.916;4.574;2023-05-16T09:25:17;102366.69;;;13.96;57.24
61506;BME280;47366;51.916;4.574;2023-05-16T09:27:45;102363.94;;;13.96;54.30
61506;BME280;47366;51.916;4.574;2023-05-16T09:30:13;102367.50;;;14.16;55.30
61506;BME280;47366;51.916;4.574;2023-05-16T09:32:42;102374.44;;;14.39;55.43
61506;BME280;47366;51.916;4.574;2023-05-16T09:35:10;102351.69;;;14.22;56.26
61506;BME280;47366;51.916;4.574;2023-05-16T09:37:43;102367.34;;;14.19;55.53
61506;BME280;47366;51.916;4.574;2023-05-16T09:40:09;102378.41;;;14.33;54.06
61506;BME280;47366;51.916;4.574;2023-05-16T09:42:34;102370.03;;;14.71;54.67
61506;BME280;47366;51.916;4.574;2023-05-16T09:45:00;102365.88;;;14.97;54.20
61506;BME280;47366;51.916;4.574;2023-05-16T09:47:26;102365.88;;;14.64;54.84
61506;BME280;47366;51.916;4.574;2023-05-16T09:49:52;102369.97;;;14.55;55.15
61506;BME280;47366;51.916;4.574;2023-05-16T09:52:18;102375.75;;;14.49;55.30
61506;BME280;47366;51.916;4.574;2023-05-16T09:54:45;102378.03;;;14.74;55.74
61506;BME280;47366;51.916;4.574;2023-05-16T09:57:19;102373.28;;;15.11;53.25
61506;BME280;47366;51.916;4.574;2023-05-16T09:59:46;102371.19;;;15.48;54.59
61506;BME280;47366;51.916;4.574;2023-05-16T10:02:12;102371.09;;;15.81;53.23
61506;BME280;47366;51.916;4.574;2023-05-16T10:04:38;102356.50;;;15.97;52.16
61506;BME280;47366;51.916;4.574;2023-05-16T10:07:05;102362.16;;;16.24;50.98
61506;BME280;47366;51.916;4.574;2023-05-16T10:09:31;102375.75;;;16.40;50.84
61506;BME280;47366;51.916;4.574;2023-05-16T10:11:57;102373.81;;;16.42;49.17
61506;BME280;47366;51.916;4.574;2023-05-16T10:14:27;102357.63;;;16.53;51.18
61506;BME280;47366;51.916;4.574;2023-05-16T10:16:52;102372.38;;;16.50;49.69
61506;BME280;47366;51.916;4.574;2023-05-16T10:19:20;102370.41;;;16.38;48.12
61506;BME280;47366;51.916;4.574;2023-05-16T10:21:50;102369.25;;;16.42;48.21
61506;BME280;47366;51.916;4.574;2023-05-16T10:24:21;102361.91;;;16.57;50.60
61506;BME280;47366;51.916;4.574;2023-05-16T10:26:49;102370.22;;;16.55;50.11
61506;BME280;47366;51.916;4.574;2023-05-16T10:29:16;102369.44;;;16.53;49.10
61506;BME280;47366;51.916;4.574;2023-05-16T10:31:42;102372.34;;;16.06;49.49
61506;BME280;47366;51.916;4.574;2023-05-16T10:34:08;102376.28;;;15.70;50.54
61506;BME280;47366;51.916;4.574;2023-05-16T10:36:35;102365.50;;;15.99;52.02
61506;BME280;47366;51.916;4.574;2023-05-16T10:39:01;102362.03;;;16.25;50.70
61506;BME280;47366;51.916;4.574;2023-05-16T10:41:28;102365.50;;;16.43;47.90
61506;BME280;47366;51.916;4.574;2023-05-16T10:43:57;102353.44;;;16.62;48.14
61506;BME280;47366;51.916;4.574;2023-05-16T10:46:24;102353.81;;;16.55;49.72
61506;BME280;47366;51.916;4.574;2023-05-16T10:48:50;102359.94;;;16.30;49.54
61506;BME280;47366;51.916;4.574;2023-05-16T10:53:50;102361.78;;;16.44;50.15
61506;BME280;47366;51.916;4.574;2023-05-16T10:56:21;102360.06;;;16.72;49.04
61506;BME280;47366;51.916;4.574;2023-05-16T10:58:47;102357.75;;;16.80;48.93
61506;BME280;47366;51.916;4.574;2023-05-16T11:01:34;102351.06;;;16.70;48.20
61506;BME280;47366;51.916;4.574;2023-05-16T11:04:07;102350.53;;;16.79;49.18
61506;BME280;47366;51.916;4.574;2023-05-16T11:14:41;102359.56;;;17.23;46.79
61506;BME280;47366;51.916;4.574;2023-05-16T11:17:14;102354.06;;;17.37;47.10
61506;BME280;47366;51.916;4.574;2023-05-16T11:19:44;102346.03;;;17.48;46.33
61506;BME280;47366;51.916;4.574;2023-05-16T11:22:22;102348.19;;;17.70;47.36
61506;BME280;47366;51.916;4.574;2023-05-16T11:24:54;102353.50;;;17.59;47.27
61506;BME280;47366;51.916;4.574;2023-05-16T11:27:30;102365.03;;;17.23;48.20
61506;BME280;47366;51.916;4.574;2023-05-16T11:30:09;102346.88;;;17.22;48.90
61506;BME280;47366;51.916;4.574;2023-05-16T11:32:37;102368.28;;;17.15;48.56
61506;BME280;47366;51.916;4.574;2023-05-16T11:35:06;102360.94;;;17.30;47.34
61506;BME280;47366;51.916;4.574;2023-05-16T11:37:33;102365.34;;;17.18;47.83
61506;BME280;47366;51.916;4.574;2023-05-16T11:40:02;102376.72;;;17.12;47.79
61506;BME280;47366;51.916;4.574;2023-05-16T11:42:35;102378.44;;;17.27;48.52
61506;BME280;47366;51.916;4.574;2023-05-16T11:45:09;102361.97;;;17.41;47.58
61506;BME280;47366;51.916;4.574;2023-05-16T11:47:37;102371.53;;;17.49;44.75
61506;BME280;47366;51.916;4.574;2023-05-16T11:50:10;102366.50;;;17.43;45.42
61506;BME280;47366;51.916;4.574;2023-05-16T11:52:36;102364.88;;;17.26;47.48
61506;BME280;47366;51.916;4.574;2023-05-16T11:55:06;102359.66;;;17.35;47.06
61506;BME280;47366;51.916;4.574;2023-05-16T11:57:32;102354.06;;;17.37;45.28
61506;BME280;47366;51.916;4.574;2023-05-16T12:00:04;102364.44;;;17.32;46.01
61506;BME280;47366;51.916;4.574;2023-05-16T12:02:35;102360.59;;;17.49;45.80
61506;BME280;47366;51.916;4.574;2023-05-16T12:05:06;102357.41;;;17.69;46.01
61506;BME280;47366;51.916;4.574;2023-05-16T12:07:33;102358.41;;;17.54;43.33
61506;BME280;47366;51.916;4.574;2023-05-16T12:09:59;102356.09;;;17.48;44.33
61506;BME280;47366;51.916;4.574;2023-05-16T12:12:28;102351.91;;;17.69;46.13
61506;BME280;47366;51.916;4.574;2023-05-16T12:14:53;102358.34;;;17.82;45.90
61506;BME280;47366;51.916;4.574;2023-05-16T12:17:19;102365.19;;;17.75;46.31
61506;BME280;47366;51.916;4.574;2023-05-16T12:19:46;102358.16;;;17.86;46.32
61506;BME280;47366;51.916;4.574;2023-05-16T12:22:16;102358.81;;;17.89;43.62
61506;BME280;47366;51.916;4.574;2023-05-16T12:24:42;102360.28;;;17.95;45.63
61506;BME280;47366;51.916;4.574;2023-05-16T12:27:08;102355.34;;;18.00;46.23
61506;BME280;47366;51.916;4.574;2023-05-16T12:29:33;102365.78;;;18.08;45.22
61506;BME280;47366;51.916;4.574;2023-05-16T12:31:59;102367.09;;;18.02;43.10
61506;BME280;47366;51.916;4.574;2023-05-16T12:34:28;102350.84;;;17.72;43.85
61506;BME280;47366;51.916;4.574;2023-05-16T12:36:54;102368.50;;;17.53;46.24
61506;BME280;47366;51.916;4.574;2023-05-16T12:39:20;102346.03;;;17.48;46.25
61506;BME280;47366;51.916;4.574;2023-05-16T12:41:47;102362.31;;;17.23;45.22
61506;BME280;47366;51.916;4.574;2023-05-16T12:44:13;102361.50;;;17.35;45.48
61506;BME280;47366;51.916;4.574;2023-05-16T12:46:50;102360.50;;;17.50;43.27
61506;BME280;47366;51.916;4.574;2023-05-16T12:49:22;102351.66;;;17.59;44.42
61506;BME280;47366;51.916;4.574;2023-05-16T12:51:51;102354.09;;;17.64;44.17
61506;BME280;47366;51.916;4.574;2023-05-16T12:54:17;102347.88;;;17.48;45.73
61506;BME280;47366;51.916;4.574;2023-05-16T12:56:43;102362.97;;;17.40;44.91
61506;BME280;47366;51.916;4.574;2023-05-16T12:59:09;102361.50;;;17.35;45.04
61506;BME280;47366;51.916;4.574;2023-05-16T13:01:36;102357.78;;;17.36;45.78
61506;BME280;47366;51.916;4.574;2023-05-16T13:04:02;102355.31;;;17.46;46.19
61506;BME280;47366;51.916;4.574;2023-05-16T13:06:29;102343.50;;;17.45;45.34
61506;BME280;47366;51.916;4.574;2023-05-16T13:08:54;102355.22;;;17.47;43.97
61506;BME280;47366;51.916;4.574;2023-05-16T13:11:20;102354.50;;;17.58;45.59
61506;BME280;47366;51.916;4.574;2023-05-16T13:13:46;102357.59;;;17.66;44.26
61506;BME280;47366;51.916;4.574;2023-05-16T13:16:11;102359.16;;;17.70;45.00
61506;BME280;47366;51.916;4.574;2023-05-16T13:18:36;102358.38;;;17.41;44.58